sensor_id;sensor_type;location;lat;lon;timestamp;P1;durP1;ratioP1;P2;durP2;ratioP2
22332;SDS011;11334;36.986;-121.936;2023-04-24T00:00:38;8.77;;;2.42;;
22332;SDS011;11334;36.986;-121.936;2023-04-24T00:03:06;8.40;;;3.22;;
22332;SDS011;11334;36.986;-121.936;2023-04-24T00:05:32;7.22;;;2.72;;
22332;SDS011;11334;36.986;-121.936;2023-04-24T00:07:59;7.45;;;3.28;;
22332;SDS011;11334;36.986;-121.936;2023-04-24T00:10:25;13.77;;;3.53;;
22332;SDS011;11334;36.986;-121.936;2023-04-24T00:12:54;9.15;;;2.80;;
22332;SDS011;11334;36.986;-121.936;2023-04-24T00:15:20;13.93;;;3.53;;
22332;SDS011;11334;36.986;-121.936;2023-04-24T00:17:47;10.23;;;3.25;;
22332;SDS011;11334;36.986;-121.936;2023-04-24T00:20:13;10.27;;;3.65;;
22332;SDS011;11334;36.986;-121.936;2023-04-24T00:22:40;14.23;;;3.72;;
22332;SDS011;11334;36.986;-121.936;2023-04-24T00:25:06;10.40;;;3.03;;
22332;SDS011;11334;36.986;-121.936;2023-04-24T00:27:33;10.60;;;3.50;;
22332;SDS011;11334;36.986;-121.936;2023-04-24T00:30:00;13.20;;;3.65;;
22332;SDS011;11334;36.986;-121.936;2023-04-24T00:32:27;7.93;;;2.55;;
22332;SDS011;11334;36.986;-121.936;2023-04-24T00:34:53;11.75;;;3.13;;
22332;SDS011;11334;36.986;-121.936;2023-04-24T00:37:19;7.07;;;2.90;;
22332;SDS011;11334;36.986;-121.936;2023-04-24T00:39:45;11.02;;;3.08;;
22332;SDS011;11334;36.986;-121.936;2023-04-24T00:42:12;9.45;;;2.83;;
22332;SDS011;11334;36.986;-121.936;2023-04-24T00:44:38;10.75;;;3.70;;
22332;SDS011;11334;36.986;-121.936;2023-04-24T00:47:04;10.40;;;3.03;;
22332;SDS011;11334;36.986;-121.936;2023-04-24T00:49:31;12.15;;;3.33;;
22332;SDS011;11334;36.986;-121.936;2023-04-24T00:52:00;7.43;;;3.35;;
22332;SDS011;11334;36.986;-121.936;2023-04-24T00:54:26;7.25;;;3.28;;
22332;SDS011;11334;36.986;-121.936;2023-04-24T00:56:52;11.02;;;3.30;;
22332;SDS011;11334;36.986;-121.936;2023-04-24T00:59:18;9.13;;;2.72;;
22332;SDS011;11334;36.986;-121.936;2023-04-24T01:01:45;9.15;;;2.90;;
22332;SDS011;11334;36.986;-121.936;2023-04-24T01:04:12;7.38;;;2.65;;
22332;SDS011;11334;36.986;-121.936;2023-04-24T01:06:39;10.02;;;3.33;;
22332;SDS011;11334;36.986;-121.936;2023-04-24T01:09:06;10.68;;;3.17;;
22332;SDS011;11334;36.986;-121.936;2023-04-24T01:11:34;6.30;;;2.90;;
22332;SDS011;11334;36.986;-121.936;2023-04-24T01:14:00;9.85;;;2.60;;
22332;SDS011;11334;36.986;-121.936;2023-04-24T01:16:27;6.75;;;2.75;;
22332;SDS011;11334;36.986;-121.936;2023-04-24T01:18:53;8.32;;;2.78;;
22332;SDS011;11334;36.986;-121.936;2023-04-24T01:21:20;10.55;;;2.63;;
22332;SDS011;11334;36.986;-121.936;2023-04-24T01:23:47;8.43;;;3.15;;
22332;SDS011;11334;36.986;-121.936;2023-04-24T01:26:14;6.35;;;2.33;;
22332;SDS011;11334;36.986;-121.936;2023-04-24T01:28:41;7.10;;;3.13;;
22332;SDS011;11334;36.986;-121.936;2023-04-24T01:31:08;8.90;;;2.95;;
22332;SDS011;11334;36.986;-121.936;2023-04-24T01:33:34;5.85;;;2.47;;
22332;SDS011;11334;36.986;-121.936;2023-04-24T01:36:00;7.43;;;2.97;;
22332;SDS011;11334;36.986;-121.936;2023-04-24T01:38:27;9.20;;;3.13;;
22332;SDS011;11334;36.986;-121.936;2023-04-24T01:40:53;8.60;;;3.22;;
22332;SDS011;11334;36.986;-121.936;2023-04-24T01:43:20;9.18;;;3.03;;
22332;SDS011;11334;36.986;-121.936;2023-04-24T01:45:46;11.02;;;3.38;;
22332;SDS011;11334;36.986;-121.936;2023-04-24T01:48:12;8.30;;;3.25;;
22332;SDS011;11334;36.986;-121.936;2023-04-24T01:50:39;6.30;;;2.90;;
22332;SDS011;11334;36.986;-121.936;2023-04-24T01:53:05;5.65;;;2.85;;
22332;SDS011;11334;36.986;-121.936;2023-04-24T01:55:31;8.82;;;3.22;;
22332;SDS011;11334;36.986;-121.936;2023-04-24T01:57:58;6.38;;;2.70;;
22332;SDS011;11334;36.986;-121.936;2023-04-24T02:00:26;8.73;;;3.25;;
22332;SDS011;11334;36.986;-121.936;2023-04-24T02:02:52;10.23;;;2.90;;
22332;SDS011;11334;36.986;-121.936;2023-04-24T02:05:18;9.32;;;2.80;;
22332;SDS011;11334;36.986;-121.936;2023-04-24T02:07:45;10.23;;;3.47;;
22332;SDS011;11334;36.986;-121.936;2023-04-24T02:10:11;9.30;;;2.88;;
22332;SDS011;11334;36.986;-121.936;2023-04-24T02:12:37;10.60;;;3.25;;
22332;SDS011;11334;36.986;-121.936;2023-04-24T02:15:04;10.07;;;2.92;;
22332;SDS011;11334;36.986;-121.936;2023-04-24T02:17:30;10.27;;;3.45;;
22332;SDS011;11334;36.986;-121.936;2023-04-24T02:19:57;14.20;;;3.35;;
22332;SDS011;11334;36.986;-121.936;2023-04-24T02:22:23;10.63;;;3.20;;
22332;SDS011;11334;36.986;-121.936;2023-04-24T02:24:49;12.48;;;3.10;;
22332;SDS011;11334;36.986;-121.936;2023-04-24T02:27:15;10.68;;;3.30;;
22332;SDS011;11334;36.986;-121.936;2023-04-24T02:29:42;10.07;;;2.63;;
22332;SDS011;11334;36.986;-121.936;2023-04-24T02:32:08;12.95;;;3.30;;
22332;SDS011;11334;36.986;-121.936;2023-04-24T02:34:37;10.93;;;3.20;;
22332;SDS011;11334;36.986;-121.936;2023-04-24T02:37:03;12.10;;;3.53;;
22332;SDS011;11334;36.986;-121.936;2023-04-24T02:39:30;15.10;;;3.22;;
22332;SDS011;11334;36.986;-121.936;2023-04-24T02:41:56;14.60;;;3.75;;
22332;SDS011;11334;36.986;-121.936;2023-04-24T02:44:22;8.23;;;2.58;;
22332;SDS011;11334;36.986;-121.936;2023-04-24T02:46:48;11.85;;;3.17;;
22332;SDS011;11334;36.986;-121.936;2023-04-24T02:49:14;11.18;;;2.83;;
22332;SDS011;11334;36.986;-121.936;2023-04-24T02:51:41;8.80;;;2.88;;
22332;SDS011;11334;36.986;-121.936;2023-04-24T02:54:07;13.00;;;3.47;;
22332;SDS011;11334;36.986;-121.936;2023-04-24T02:56:35;13.60;;;3.05;;
22332;SDS011;11334;36.986;-121.936;2023-04-24T02:59:01;9.95;;;2.60;;
22332;SDS011;11334;36.986;-121.936;2023-04-24T03:01:28;12.90;;;3.00;;
22332;SDS011;11334;36.986;-121.936;2023-04-24T03:03:54;11.55;;;3.13;;
22332;SDS011;11334;36.986;-121.936;2023-04-24T03:06:20;8.88;;;3.17;;
22332;SDS011;11334;36.986;-121.936;2023-04-24T03:08:47;13.63;;;3.35;;
22332;SDS011;11334;36.986;-121.936;2023-04-24T03:11:13;13.55;;;3.33;;
22332;SDS011;11334;36.986;-121.936;2023-04-24T03:13:39;14.20;;;4.10;;
22332;SDS011;11334;36.986;-121.936;2023-04-24T03:16:05;17.95;;;3.47;;
22332;SDS011;11334;36.986;-121.936;2023-04-24T03:18:32;9.75;;;3.10;;
22332;SDS011;11334;36.986;-121.936;2023-04-24T03:20:58;16.33;;;3.80;;
22332;SDS011;11334;36.986;-121.936;2023-04-24T03:23:24;13.48;;;3.88;;
22332;SDS011;11334;36.986;-121.936;2023-04-24T03:25:50;12.20;;;3.88;;
22332;SDS011;11334;36.986;-121.936;2023-04-24T03:28:17;12.40;;;3.60;;
22332;SDS011;11334;36.986;-121.936;2023-04-24T03:30:44;16.20;;;3.88;;
22332;SDS011;11334;36.986;-121.936;2023-04-24T03:33:11;10.88;;;3.88;;
22332;SDS011;11334;36.986;-121.936;2023-04-24T03:35:37;14.82;;;4.03;;
22332;SDS011;11334;36.986;-121.936;2023-04-24T03:38:03;10.18;;;3.20;;
22332;SDS011;11334;36.986;-121.936;2023-04-24T03:40:30;12.45;;;3.42;;
22332;SDS011;11334;36.986;-121.936;2023-04-24T03:42:56;12.20;;;2.92;;
22332;SDS011;11334;36.986;-121.936;2023-04-24T03:45:22;12.73;;;3.05;;
22332;SDS011;11334;36.986;-121.936;2023-04-24T03:47:49;12.25;;;3.53;;
22332;SDS011;11334;36.986;-121.936;2023-04-24T03:50:15;9.25;;;3.70;;
22332;SDS011;11334;36.986;-121.936;2023-04-24T03:52:41;8.18;;;2.75;;
22332;SDS011;11334;36.986;-121.936;2023-04-24T03:55:08;10.77;;;3.85;;
22332;SDS011;11334;36.986;-121.936;2023-04-24T03:57:39;9.77;;;3.80;;
22332;SDS011;11334;36.986;-121.936;2023-04-24T04:00:06;13.18;;;3.97;;
22332;SDS011;11334;36.986;-121.936;2023-04-24T04:02:34;10.02;;;3.05;;
22332;SDS011;11334;36.986;-121.936;2023-04-24T04:05:00;11.52;;;2.90;;
22332;SDS011;11334;36.986;-121.936;2023-04-24T04:07:27;11.35;;;3.28;;
22332;SDS011;11334;36.986;-121.936;2023-04-24T04:09:55;9.85;;;3.13;;
22332;SDS011;11334;36.986;-121.936;2023-04-24T04:12:21;16.83;;;3.92;;
22332;SDS011;11334;36.986;-121.936;2023-04-24T04:14:47;9.27;;;3.80;;
22332;SDS011;11334;36.986;-121.936;2023-04-24T04:17:13;11.70;;;3.75;;
22332;SDS011;11334;36.986;-121.936;2023-04-24T04:19:40;12.93;;;4.25;;
22332;SDS011;11334;36.986;-121.936;2023-04-24T04:22:06;12.73;;;3.80;;
22332;SDS011;11334;36.986;-121.936;2023-04-24T04:24:33;12.93;;;4.47;;
22332;SDS011;11334;36.986;-121.936;2023-04-24T04:27:03;8.70;;;3.92;;
22332;SDS011;11334;36.986;-121.936;2023-04-24T04:29:30;12.90;;;3.97;;
22332;SDS011;11334;36.986;-121.936;2023-04-24T04:31:57;13.30;;;3.58;;
22332;SDS011;11334;36.986;-121.936;2023-04-24T04:34:23;11.07;;;4.13;;
22332;SDS011;11334;36.986;-121.936;2023-04-24T04:36:49;13.45;;;3.85;;
22332;SDS011;11334;36.986;-121.936;2023-04-24T04:39:16;11.75;;;3.78;;
22332;SDS011;11334;36.986;-121.936;2023-04-24T04:41:44;14.10;;;3.83;;
22332;SDS011;11334;36.986;-121.936;2023-04-24T04:44:14;14.13;;;3.60;;
22332;SDS011;11334;36.986;-121.936;2023-04-24T04:46:40;10.10;;;3.13;;
22332;SDS011;11334;36.986;-121.936;2023-04-24T04:49:07;11.43;;;3.90;;
22332;SDS011;11334;36.986;-121.936;2023-04-24T04:51:34;13.45;;;3.38;;
22332;SDS011;11334;36.986;-121.936;2023-04-24T04:54:00;11.70;;;3.10;;
22332;SDS011;11334;36.986;-121.936;2023-04-24T04:56:27;10.73;;;2.55;;
22332;SDS011;11334;36.986;-121.936;2023-04-24T04:58:53;11.15;;;4.05;;
22332;SDS011;11334;36.986;-121.936;2023-04-24T05:01:19;10.73;;;3.00;;
22332;SDS011;11334;36.986;-121.936;2023-04-24T05:03:46;12.02;;;3.10;;
22332;SDS011;11334;36.986;-121.936;2023-04-24T05:06:12;11.85;;;3.58;;
22332;SDS011;11334;36.986;-121.936;2023-04-24T05:08:38;10.73;;;3.30;;
22332;SDS011;11334;36.986;-121.936;2023-04-24T05:11:05;10.73;;;3.28;;
22332;SDS011;11334;36.986;-121.936;2023-04-24T05:13:34;12.88;;;3.40;;
22332;SDS011;11334;36.986;-121.936;2023-04-24T05:16:00;8.30;;;2.78;;
22332;SDS011;11334;36.986;-121.936;2023-04-24T05:18:26;8.45;;;3.25;;
22332;SDS011;11334;36.986;-121.936;2023-04-24T05:20:53;7.78;;;2.75;;
22332;SDS011;11334;36.986;-121.936;2023-04-24T05:23:19;7.70;;;2.92;;
22332;SDS011;11334;36.986;-121.936;2023-04-24T05:25:45;11.13;;;3.45;;
22332;SDS011;11334;36.986;-121.936;2023-04-24T05:28:11;11.50;;;3.80;;
22332;SDS011;11334;36.986;-121.936;2023-04-24T05:30:38;10.40;;;3.60;;
22332;SDS011;11334;36.986;-121.936;2023-04-24T05:33:04;9.32;;;2.92;;
22332;SDS011;11334;36.986;-121.936;2023-04-24T05:35:30;10.07;;;3.58;;
22332;SDS011;11334;36.986;-121.936;2023-04-24T05:37:57;12.40;;;3.42;;
22332;SDS011;11334;36.986;-121.936;2023-04-24T05:40:23;8.02;;;2.75;;
22332;SDS011;11334;36.986;-121.936;2023-04-24T05:42:49;10.25;;;3.10;;
22332;SDS011;11334;36.986;-121.936;2023-04-24T05:45:15;6.28;;;2.50;;
22332;SDS011;11334;36.986;-121.936;2023-04-24T05:47:42;9.65;;;2.70;;
22332;SDS011;11334;36.986;-121.936;2023-04-24T05:50:13;8.25;;;2.40;;
22332;SDS011;11334;36.986;-121.936;2023-04-24T05:52:40;7.43;;;2.60;;
22332;SDS011;11334;36.986;-121.936;2023-04-24T05:55:06;7.57;;;2.28;;
22332;SDS011;11334;36.986;-121.936;2023-04-24T05:57:33;8.38;;;2.92;;
22332;SDS011;11334;36.986;-121.936;2023-04-24T05:59:59;9.38;;;2.47;;
22332;SDS011;11334;36.986;-121.936;2023-04-24T06:02:25;10.20;;;2.83;;
22332;SDS011;11334;36.986;-121.936;2023-04-24T06:04:52;7.25;;;2.42;;
22332;SDS011;11334;36.986;-121.936;2023-04-24T06:07:19;4.65;;;2.35;;
22332;SDS011;11334;36.986;-121.936;2023-04-24T06:09:45;11.45;;;2.83;;
22332;SDS011;11334;36.986;-121.936;2023-04-24T06:12:12;7.85;;;2.65;;
22332;SDS011;11334;36.986;-121.936;2023-04-24T06:14:38;9.38;;;2.78;;
22332;SDS011;11334;36.986;-121.936;2023-04-24T06:17:05;8.85;;;2.90;;
22332;SDS011;11334;36.986;-121.936;2023-04-24T06:19:31;7.47;;;1.90;;
22332;SDS011;11334;36.986;-121.936;2023-04-24T06:21:57;6.20;;;1.90;;
22332;SDS011;11334;36.986;-121.936;2023-04-24T06:24:26;8.88;;;2.90;;
22332;SDS011;11334;36.986;-121.936;2023-04-24T06:26:53;8.52;;;3.03;;
22332;SDS011;11334;36.986;-121.936;2023-04-24T06:29:20;5.93;;;2.28;;
22332;SDS011;11334;36.986;-121.936;2023-04-24T06:31:46;11.43;;;3.00;;
22332;SDS011;11334;36.986;-121.936;2023-04-24T06:34:12;6.85;;;2.40;;
22332;SDS011;11334;36.986;-121.936;2023-04-24T06:36:39;10.27;;;2.40;;
22332;SDS011;11334;36.986;-121.936;2023-04-24T06:39:05;9.18;;;2.67;;
22332;SDS011;11334;36.986;-121.936;2023-04-24T06:41:32;7.65;;;2.40;;
22332;SDS011;11334;36.986;-121.936;2023-04-24T06:43:58;8.63;;;2.83;;
22332;SDS011;11334;36.986;-121.936;2023-04-24T06:46:24;8.02;;;2.33;;
22332;SDS011;11334;36.986;-121.936;2023-04-24T06:48:53;8.00;;;2.05;;
22332;SDS011;11334;36.986;-121.936;2023-04-24T06:51:25;8.68;;;2.42;;
22332;SDS011;11334;36.986;-121.936;2023-04-24T06:53:53;8.23;;;2.67;;
22332;SDS011;11334;36.986;-121.936;2023-04-24T06:56:21;9.25;;;2.53;;
22332;SDS011;11334;36.986;-121.936;2023-04-24T06:58:47;6.05;;;2.22;;
22332;SDS011;11334;36.986;-121.936;2023-04-24T07:01:14;5.72;;;2.70;;
22332;SDS011;11334;36.986;-121.936;2023-04-24T07:03:40;9.20;;;2.95;;
22332;SDS011;11334;36.986;-121.936;2023-04-24T07:06:07;10.88;;;2.75;;
22332;SDS011;11334;36.986;-121.936;2023-04-24T07:08:36;5.65;;;2.55;;
22332;SDS011;11334;36.986;-121.936;2023-04-24T07:11:02;7.90;;;2.55;;
22332;SDS011;11334;36.986;-121.936;2023-04-24T07:13:29;8.48;;;2.92;;
22332;SDS011;11334;36.986;-121.936;2023-04-24T07:15:55;9.05;;;2.75;;
22332;SDS011;11334;36.986;-121.936;2023-04-24T07:18:22;9.27;;;2.60;;
22332;SDS011;11334;36.986;-121.936;2023-04-24T07:20:48;8.98;;;2.75;;
22332;SDS011;11334;36.986;-121.936;2023-04-24T07:23:18;8.35;;;2.55;;
22332;SDS011;11334;36.986;-121.936;2023-04-24T07:25:45;8.88;;;2.30;;
22332;SDS011;11334;36.986;-121.936;2023-04-24T07:28:12;7.97;;;2.38;;
22332;SDS011;11334;36.986;-121.936;2023-04-24T07:30:38;12.32;;;3.88;;
22332;SDS011;11334;36.986;-121.936;2023-04-24T07:33:05;11.68;;;3.35;;
22332;SDS011;11334;36.986;-121.936;2023-04-24T07:35:32;9.57;;;2.40;;
22332;SDS011;11334;36.986;-121.936;2023-04-24T07:37:59;8.93;;;2.95;;
22332;SDS011;11334;36.986;-121.936;2023-04-24T07:40:25;13.05;;;2.83;;
22332;SDS011;11334;36.986;-121.936;2023-04-24T07:42:52;12.48;;;3.13;;
22332;SDS011;11334;36.986;-121.936;2023-04-24T07:45:18;12.15;;;3.45;;
22332;SDS011;11334;36.986;-121.936;2023-04-24T07:47:44;9.05;;;3.13;;
22332;SDS011;11334;36.986;-121.936;2023-04-24T07:50:11;10.00;;;3.47;;
22332;SDS011;11334;36.986;-121.936;2023-04-24T07:52:38;8.45;;;2.95;;
22332;SDS011;11334;36.986;-121.936;2023-04-24T07:55:04;9.60;;;3.22;;
22332;SDS011;11334;36.986;-121.936;2023-04-24T07:57:31;9.07;;;3.15;;
22332;SDS011;11334;36.986;-121.936;2023-04-24T07:59:57;11.88;;;3.00;;
22332;SDS011;11334;36.986;-121.936;2023-04-24T08:02:23;12.55;;;3.05;;
22332;SDS011;11334;36.986;-121.936;2023-04-24T08:04:55;8.63;;;3.10;;
22332;SDS011;11334;36.986;-121.936;2023-04-24T08:07:21;8.95;;;2.78;;
22332;SDS011;11334;36.986;-121.936;2023-04-24T08:09:48;10.93;;;3.33;;
22332;SDS011;11334;36.986;-121.936;2023-04-24T08:12:15;7.60;;;3.05;;
22332;SDS011;11334;36.986;-121.936;2023-04-24T08:14:41;16.10;;;3.85;;
22332;SDS011;11334;36.986;-121.936;2023-04-24T08:17:08;11.18;;;3.10;;
22332;SDS011;11334;36.986;-121.936;2023-04-24T08:19:34;10.45;;;3.38;;
22332;SDS011;11334;36.986;-121.936;2023-04-24T08:22:00;8.68;;;2.72;;
22332;SDS011;11334;36.986;-121.936;2023-04-24T08:24:27;7.35;;;2.97;;
22332;SDS011;11334;36.986;-121.936;2023-04-24T08:26:54;7.80;;;2.92;;
22332;SDS011;11334;36.986;-121.936;2023-04-24T08:29:22;8.50;;;3.03;;
22332;SDS011;11334;36.986;-121.936;2023-04-24T08:31:48;8.80;;;2.97;;
22332;SDS011;11334;36.986;-121.936;2023-04-24T08:34:14;7.97;;;2.30;;
22332;SDS011;11334;36.986;-121.936;2023-04-24T08:36:41;6.10;;;2.47;;
22332;SDS011;11334;36.986;-121.936;2023-04-24T08:39:07;11.10;;;2.65;;
22332;SDS011;11334;36.986;-121.936;2023-04-24T08:41:33;6.78;;;2.45;;
22332;SDS011;11334;36.986;-121.936;2023-04-24T08:44:01;10.23;;;2.97;;
22332;SDS011;11334;36.986;-121.936;2023-04-24T08:46:28;6.75;;;2.70;;
22332;SDS011;11334;36.986;-121.936;2023-04-24T08:48:55;4.63;;;1.83;;
22332;SDS011;11334;36.986;-121.936;2023-04-24T08:51:22;8.10;;;2.42;;
22332;SDS011;11334;36.986;-121.936;2023-04-24T08:53:51;5.20;;;2.30;;
22332;SDS011;11334;36.986;-121.936;2023-04-24T08:56:19;8.82;;;2.38;;
22332;SDS011;11334;36.986;-121.936;2023-04-24T08:58:50;4.20;;;1.88;;
22332;SDS011;11334;36.986;-121.936;2023-04-24T09:01:18;7.45;;;2.47;;
22332;SDS011;11334;36.986;-121.936;2023-04-24T09:03:48;4.68;;;2.03;;
22332;SDS011;11334;36.986;-121.936;2023-04-24T09:06:15;4.57;;;2.05;;
22332;SDS011;11334;36.986;-121.936;2023-04-24T09:08:43;9.50;;;2.47;;
22332;SDS011;11334;36.986;-121.936;2023-04-24T09:11:11;8.07;;;2.60;;
22332;SDS011;11334;36.986;-121.936;2023-04-24T09:13:37;6.57;;;2.80;;
22332;SDS011;11334;36.986;-121.936;2023-04-24T09:16:04;3.22;;;1.77;;
22332;SDS011;11334;36.986;-121.936;2023-04-24T09:18:30;7.20;;;2.30;;
22332;SDS011;11334;36.986;-121.936;2023-04-24T09:21:01;4.28;;;2.10;;
22332;SDS011;11334;36.986;-121.936;2023-04-24T09:23:30;8.35;;;2.90;;
22332;SDS011;11334;36.986;-121.936;2023-04-24T09:25:58;5.32;;;2.03;;
22332;SDS011;11334;36.986;-121.936;2023-04-24T09:28:32;5.50;;;1.92;;
22332;SDS011;11334;36.986;-121.936;2023-04-24T09:31:18;4.53;;;2.10;;
22332;SDS011;11334;36.986;-121.936;2023-04-24T09:34:03;6.85;;;2.10;;
22332;SDS011;11334;36.986;-121.936;2023-04-24T09:36:34;8.73;;;2.30;;
22332;SDS011;11334;36.986;-121.936;2023-04-24T09:39:07;4.60;;;1.77;;
22332;SDS011;11334;36.986;-121.936;2023-04-24T09:41:51;9.30;;;2.88;;
22332;SDS011;11334;36.986;-121.936;2023-04-24T09:44:19;6.28;;;2.45;;
22332;SDS011;11334;36.986;-121.936;2023-04-24T09:46:50;7.10;;;2.25;;
22332;SDS011;11334;36.986;-121.936;2023-04-24T09:49:22;6.85;;;1.85;;
22332;SDS011;11334;36.986;-121.936;2023-04-24T09:51:50;5.38;;;2.35;;
22332;SDS011;11334;36.986;-121.936;2023-04-24T09:54:20;9.18;;;2.40;;
22332;SDS011;11334;36.986;-121.936;2023-04-24T09:56:48;8.73;;;2.13;;
22332;SDS011;11334;36.986;-121.936;2023-04-24T09:59:18;3.45;;;1.55;;
22332;SDS011;11334;36.986;-121.936;2023-04-24T10:01:45;4.82;;;2.10;;
22332;SDS011;11334;36.986;-121.936;2023-04-24T10:04:17;7.95;;;2.10;;
22332;SDS011;11334;36.986;-121.936;2023-04-24T10:06:45;6.88;;;2.55;;
22332;SDS011;11334;36.986;-121.936;2023-04-24T10:09:14;4.95;;;2.33;;
22332;SDS011;11334;36.986;-121.936;2023-04-24T10:11:42;5.82;;;2.30;;
22332;SDS011;11334;36.986;-121.936;2023-04-24T10:14:11;6.35;;;2.10;;
22332;SDS011;11334;36.986;-121.936;2023-04-24T10:16:39;3.88;;;1.80;;
22332;SDS011;11334;36.986;-121.936;2023-04-24T10:19:06;9.32;;;2.33;;
22332;SDS011;11334;36.986;-121.936;2023-04-24T10:21:34;6.85;;;2.13;;
22332;SDS011;11334;36.986;-121.936;2023-04-24T10:24:04;7.97;;;2.15;;
22332;SDS011;11334;36.986;-121.936;2023-04-24T10:26:32;6.63;;;1.52;;
22332;SDS011;11334;36.986;-121.936;2023-04-24T10:28:59;5.47;;;1.75;;
22332;SDS011;11334;36.986;-121.936;2023-04-24T10:31:28;10.25;;;2.00;;
22332;SDS011;11334;36.986;-121.936;2023-04-24T10:33:58;6.13;;;2.15;;
22332;SDS011;11334;36.986;-121.936;2023-04-24T10:36:26;9.93;;;2.38;;
22332;SDS011;11334;36.986;-121.936;2023-04-24T10:38:54;4.15;;;1.63;;
22332;SDS011;11334;36.986;-121.936;2023-04-24T10:41:22;7.80;;;2.20;;
22332;SDS011;11334;36.986;-121.936;2023-04-24T10:44:07;6.63;;;2.38;;
22332;SDS011;11334;36.986;-121.936;2023-04-24T10:46:38;6.75;;;1.83;;
22332;SDS011;11334;36.986;-121.936;2023-04-24T10:49:10;5.03;;;1.77;;
22332;SDS011;11334;36.986;-121.936;2023-04-24T10:51:44;4.57;;;1.80;;
22332;SDS011;11334;36.986;-121.936;2023-04-24T10:54:29;5.65;;;1.98;;
22332;SDS011;11334;36.986;-121.936;2023-04-24T10:59:51;7.25;;;1.67;;
22332;SDS011;11334;36.986;-121.936;2023-04-24T11:02:38;6.47;;;1.70;;
22332;SDS011;11334;36.986;-121.936;2023-04-24T11:05:14;7.25;;;2.00;;
22332;SDS011;11334;36.986;-121.936;2023-04-24T11:10:46;5.80;;;1.90;;
22332;SDS011;11334;36.986;-121.936;2023-04-24T11:13:23;3.50;;;1.70;;
22332;SDS011;11334;36.986;-121.936;2023-04-24T11:22:03;6.72;;;2.13;;
22332;SDS011;11334;36.986;-121.936;2023-04-24T11:24:30;6.32;;;2.25;;
22332;SDS011;11334;36.986;-121.936;2023-04-24T11:32:29;7.35;;;1.83;;
22332;SDS011;11334;36.986;-121.936;2023-04-24T11:34:59;6.47;;;1.95;;
22332;SDS011;11334;36.986;-121.936;2023-04-24T11:37:39;7.15;;;2.47;;
22332;SDS011;11334;36.986;-121.936;2023-04-24T11:40:07;6.22;;;2.67;;
22332;SDS011;11334;36.986;-121.936;2023-04-24T11:42:40;8.07;;;2.13;;
22332;SDS011;11334;36.986;-121.936;2023-04-24T11:45:17;9.75;;;2.22;;
22332;SDS011;11334;36.986;-121.936;2023-04-24T11:47:46;6.47;;;2.28;;
22332;SDS011;11334;36.986;-121.936;2023-04-24T11:50:13;8.90;;;2.58;;
22332;SDS011;11334;36.986;-121.936;2023-04-24T11:52:44;8.05;;;2.20;;
22332;SDS011;11334;36.986;-121.936;2023-04-24T11:57:44;8.25;;;2.40;;
22332;SDS011;11334;36.986;-121.936;2023-04-24T12:00:31;9.77;;;2.75;;
22332;SDS011;11334;36.986;-121.936;2023-04-24T12:03:17;8.00;;;2.55;;
22332;SDS011;11334;36.986;-121.936;2023-04-24T12:05:43;9.55;;;2.80;;
22332;SDS011;11334;36.986;-121.936;2023-04-24T12:08:10;7.57;;;2.38;;
22332;SDS011;11334;36.986;-121.936;2023-04-24T12:10:36;6.22;;;2.53;;
22332;SDS011;11334;36.986;-121.936;2023-04-24T12:13:02;7.00;;;2.35;;
22332;SDS011;11334;36.986;-121.936;2023-04-24T12:15:29;7.68;;;2.60;;
22332;SDS011;11334;36.986;-121.936;2023-04-24T12:17:55;7.93;;;2.95;;
22332;SDS011;11334;36.986;-121.936;2023-04-24T12:20:26;10.80;;;2.90;;
22332;SDS011;11334;36.986;-121.936;2023-04-24T12:22:56;8.40;;;2.65;;
22332;SDS011;11334;36.986;-121.936;2023-04-24T12:25:27;8.98;;;2.85;;
22332;SDS011;11334;36.986;-121.936;2023-04-24T12:30:29;7.75;;;2.58;;
22332;SDS011;11334;36.986;-121.936;2023-04-24T12:32:58;4.95;;;2.33;;
22332;SDS011;11334;36.986;-121.936;2023-04-24T12:35:29;10.50;;;3.22;;
22332;SDS011;11334;36.986;-121.936;2023-04-24T12:38:10;6.82;;;2.25;;
22332;SDS011;11334;36.986;-121.936;2023-04-24T12:40:39;6.65;;;2.72;;
22332;SDS011;11334;36.986;-121.936;2023-04-24T12:43:13;10.02;;;2.90;;
22332;SDS011;11334;36.986;-121.936;2023-04-24T12:45:40;8.80;;;2.35;;
22332;SDS011;11334;36.986;-121.936;2023-04-24T12:48:06;5.07;;;2.20;;
22332;SDS011;11334;36.986;-121.936;2023-04-24T12:50:33;6.07;;;2.20;;
22332;SDS011;11334;36.986;-121.936;2023-04-24T12:52:59;6.93;;;2.67;;
22332;SDS011;11334;36.986;-121.936;2023-04-24T12:55:25;4.30;;;2.03;;
22332;SDS011;11334;36.986;-121.936;2023-04-24T12:57:52;9.20;;;2.47;;
22332;SDS011;11334;36.986;-121.936;2023-04-24T13:00:20;6.35;;;2.60;;
22332;SDS011;11334;36.986;-121.936;2023-04-24T13:02:49;5.30;;;2.17;;
22332;SDS011;11334;36.986;-121.936;2023-04-24T13:05:16;7.38;;;2.35;;
22332;SDS011;11334;36.986;-121.936;2023-04-24T13:07:42;6.88;;;2.38;;
22332;SDS011;11334;36.986;-121.936;2023-04-24T13:10:08;6.00;;;2.00;;
22332;SDS011;11334;36.986;-121.936;2023-04-24T13:12:35;5.13;;;2.20;;
22332;SDS011;11334;36.986;-121.936;2023-04-24T13:15:02;5.20;;;2.10;;
22332;SDS011;11334;36.986;-121.936;2023-04-24T13:17:29;4.85;;;2.10;;
22332;SDS011;11334;36.986;-121.936;2023-04-24T13:19:55;7.85;;;1.75;;
22332;SDS011;11334;36.986;-121.936;2023-04-24T13:22:22;6.28;;;2.55;;
22332;SDS011;11334;36.986;-121.936;2023-04-24T13:24:48;5.85;;;1.90;;
22332;SDS011;11334;36.986;-121.936;2023-04-24T13:27:15;7.30;;;2.08;;
22332;SDS011;11334;36.986;-121.936;2023-04-24T13:29:41;4.05;;;2.00;;
22332;SDS011;11334;36.986;-121.936;2023-04-24T13:32:07;4.75;;;1.73;;
22332;SDS011;11334;36.986;-121.936;2023-04-24T13:34:34;5.43;;;2.42;;
22332;SDS011;11334;36.986;-121.936;2023-04-24T13:37:02;8.88;;;2.10;;
22332;SDS011;11334;36.986;-121.936;2023-04-24T13:39:29;5.32;;;2.10;;
22332;SDS011;11334;36.986;-121.936;2023-04-24T13:41:55;5.95;;;2.38;;
22332;SDS011;11334;36.986;-121.936;2023-04-24T13:44:22;3.83;;;1.98;;
22332;SDS011;11334;36.986;-121.936;2023-04-24T13:46:50;7.20;;;2.05;;
22332;SDS011;11334;36.986;-121.936;2023-04-24T13:49:19;7.47;;;1.90;;
22332;SDS011;11334;36.986;-121.936;2023-04-24T13:51:47;5.60;;;2.55;;
22332;SDS011;11334;36.986;-121.936;2023-04-24T13:54:13;7.78;;;2.20;;
22332;SDS011;11334;36.986;-121.936;2023-04-24T13:56:40;5.65;;;2.50;;
22332;SDS011;11334;36.986;-121.936;2023-04-24T13:59:06;6.03;;;2.15;;
22332;SDS011;11334;36.986;-121.936;2023-04-24T14:01:33;6.28;;;2.47;;
22332;SDS011;11334;36.986;-121.936;2023-04-24T14:03:59;5.88;;;2.85;;
22332;SDS011;11334;36.986;-121.936;2023-04-24T14:06:26;7.57;;;2.70;;
22332;SDS011;11334;36.986;-121.936;2023-04-24T14:08:52;8.15;;;2.05;;
22332;SDS011;11334;36.986;-121.936;2023-04-24T14:11:18;4.78;;;2.17;;
22332;SDS011;11334;36.986;-121.936;2023-04-24T14:13:45;8.80;;;2.50;;
22332;SDS011;11334;36.986;-121.936;2023-04-24T14:16:11;10.23;;;2.67;;
22332;SDS011;11334;36.986;-121.936;2023-04-24T14:18:39;6.57;;;3.00;;
22332;SDS011;11334;36.986;-121.936;2023-04-24T14:21:05;7.15;;;2.58;;
22332;SDS011;11334;36.986;-121.936;2023-04-24T14:23:31;7.00;;;2.78;;
22332;SDS011;11334;36.986;-121.936;2023-04-24T14:25:58;5.32;;;2.35;;
22332;SDS011;11334;36.986;-121.936;2023-04-24T14:28:24;7.40;;;2.22;;